This is the latest recevied weather packets stored in our database for station/object N2PUI. If no packets are shown the sender has not sent any weather packets the latest 1 day(s).
| Time | Temp. | Humidity | Pressure | Rain* | Wind** | Luminosity | Snow |
|---|---|---|---|---|---|---|---|
| 1778074306 | 11.67° C | 95% | 1007.4 hPa | 3.05 mm | - | 56 W/m² | - |
| 1778073094 | 11.67° C | 95% | 1007.5 hPa | 3.05 mm | - | 46 W/m² | - |
| 1778072791 | 11.11° C | 95% | 1007.6 hPa | 4.83 mm | - | 47 W/m² | - |
| 1778071884 | 10° C | 95% | 1008 hPa | 4.32 mm | - | 35 W/m² | - |
| 1778069767 | 10° C | 95% | 1006.9 hPa | 1.78 mm | - | 24 W/m² | - |
| 1778069463 | 9.44° C | 95% | 1007.2 hPa | 1.78 mm | - | 35 W/m² | - |
| 1778069161 | 9.44° C | 95% | 1007.2 hPa | 0 mm | - | 38 W/m² | - |
| 1778068858 | 9.44° C | 95% | 1007.3 hPa | 0 mm | - | 37 W/m² | - |
| 1778068556 | 9.44° C | 95% | 1007.4 hPa | 1.27 mm | - | 41 W/m² | - |
| 1778067347 | 9.44° C | 94% | 1007.9 hPa | 4.83 mm | - | 19 W/m² | - |
| 1778066741 | 9.44° C | 94% | 1007.9 hPa | 3.05 mm | - | 13 W/m² | - |
| 1778066438 | 9.44° C | 94% | 1008.1 hPa | 1.78 mm | - | 12 W/m² | - |
| 1778066136 | 9.44° C | 94% | 1008 hPa | 0 mm | - | 16 W/m² | - |
| 1778065833 | 9.44° C | 94% | 1008.1 hPa | 0 mm | - | 19 W/m² | - |
| 1778064621 | 9.44° C | 94% | 1008 hPa | 0 mm | - | 10 W/m² | - |
| 1778064319 | 9.44° C | 94% | 1007.8 hPa | 0 mm | - | 8 W/m² | - |
| 1778063109 | 9.44° C | 93% | 1008 hPa | 0 mm | - | 6 W/m² | - |
| 1778061595 | 9.44° C | 93% | 1007.7 hPa | 0 mm | - | 0 W/m² | - |
| 1778061294 | 9.44° C | 93% | 1007.7 hPa | 0 mm | - | 0 W/m² | - |
| 1778060688 | 9.44° C | 93% | 1007.5 hPa | 0 mm | - | 0 W/m² | - |
| 1778060385 | 9.44° C | 93% | 1007.7 hPa | 0 mm | - | 0 W/m² | - |
| 1778058570 | 9.44° C | 92% | 1007.7 hPa | 1.27 mm | - | 0 W/m² | - |
| 1778057963 | 9.44° C | 92% | 1007.8 hPa | 0 mm | - | 0 W/m² | - |
| 1778057660 | 9.44° C | 92% | 1007.9 hPa | 0 mm | - | 0 W/m² | - |
| 1778057351 | 9.44° C | 92% | 1008.2 hPa | 0 mm | - | 0 W/m² | - |
* Rain latest hour (hover to see other rain measurements)
** Current wind speed in m/s (hover to see current wind gust speed)